Time;durP1;ratioP1;P1;durP2;ratioP2;P2;SDS_P1;SDS_P2;PMS_P1;PMS_P2;Temp;Humidity;BMP_temperature;BMP_pressure;BME280_temperature;BME280_humidity;BME280_pressure;Samples;Min_cycle;Max_cycle;Signal;HPM_P1;HPM_P2
2022/06/07 00:02:02;;;;;;;5.80;3.67;;;12.30;99.90;;;;;;4984280;28;20060;-88
2022/06/07 00:04:28;;;;;;;10.10;3.75;;;12.20;99.90;;;;;;4983437;28;20097;-88
2022/06/07 00:06:53;;;;;;;3.85;2.28;;;12.20;99.90;;;;;;4985008;28;20666;-87
2022/06/07 00:09:19;;;;;;;3.17;2.65;;;12.20;99.90;;;;;;4984415;28;20102;-88
2022/06/07 00:11:44;;;;;;;4.35;2.80;;;12.20;99.90;;;;;;4984545;28;20053;-87
2022/06/07 00:14:10;;;;;;;9.25;2.97;;;12.20;99.90;;;;;;4998188;28;20042;-87
2022/06/07 00:16:36;;;;;;;8.98;3.80;;;12.20;99.90;;;;;;4982579;28;20054;-87
2022/06/07 00:19:03;;;;;;;16.20;4.03;;;12.30;99.90;;;;;;4981603;28;20056;-89
2022/06/07 00:21:29;;;;;;;6.35;3.25;;;12.20;99.90;;;;;;4998928;28;20054;-88
2022/06/07 00:24:02;;;;;;;2.67;2.30;;;12.20;99.90;;;;;;4982954;28;20064;-87
2022/06/07 00:26:29;;;;;;;9.48;3.78;;;12.30;99.90;;;;;;4982366;28;20050;-88
2022/06/07 00:28:55;;;;;;;14.85;3.38;;;12.30;99.90;;;;;;4982044;28;20097;-88
2022/06/07 00:31:22;;;;;;;4.03;3.42;;;12.20;99.90;;;;;;4983679;28;20048;-87
2022/06/07 00:33:48;;;;;;;9.68;3.47;;;12.30;99.90;;;;;;4983508;28;20699;-89
2022/06/07 00:36:14;;;;;;;3.47;3.17;;;12.30;99.90;;;;;;4983506;28;20089;-88
2022/06/07 00:38:43;;;;;;;4.53;3.15;;;12.30;99.90;;;;;;4982952;28;20075;-87
2022/06/07 00:41:12;;;;;;;14.40;4.07;;;12.20;99.90;;;;;;4981326;28;20125;-87
2022/06/07 00:43:38;;;;;;;7.05;3.58;;;12.30;99.90;;;;;;4982130;28;20452;-88
2022/06/07 00:46:09;;;;;;;7.85;3.63;;;12.20;99.90;;;;;;4982094;28;20046;-87
2022/06/07 00:48:37;;;;;;;4.05;3.10;;;12.20;99.90;;;;;;4982348;28;20042;-85
2022/06/07 00:51:08;;;;;;;6.97;2.63;;;12.30;99.90;;;;;;4982577;28;20069;-89
2022/06/07 00:53:35;;;;;;;6.05;3.28;;;12.30;99.90;;;;;;4983337;28;20666;-88
2022/06/07 00:56:03;;;;;;;3.17;2.95;;;12.20;99.90;;;;;;4982567;28;20135;-88
2022/06/07 00:58:30;;;;;;;7.60;3.60;;;12.30;99.90;;;;;;4983241;28;20046;-87
2022/06/07 01:00:57;;;;;;;7.82;3.47;;;12.30;99.90;;;;;;4983616;28;20050;-87
2022/06/07 01:03:23;;;;;;;3.47;2.60;;;12.30;99.90;;;;;;4982294;28;20577;-87
2022/06/07 01:05:53;;;;;;;10.98;3.55;;;12.30;99.90;;;;;;4982683;28;20100;-89
2022/06/07 01:11:11;;;;;;;4.88;4.15;;;12.30;99.90;;;;;;4959038;28;21167;-79
2022/06/07 01:13:38;;;;;;;8.02;3.83;;;12.30;99.90;;;;;;4982550;28;20521;-78
2022/06/07 01:16:06;;;;;;;4.68;3.97;;;12.30;99.90;;;;;;4982532;28;20134;-78
2022/06/07 01:18:32;;;;;;;5.43;3.85;;;12.30;99.90;;;;;;4981518;28;20053;-79
2022/06/07 01:21:17;;;;;;;15.55;3.78;;;12.30;99.90;;;;;;4983313;28;20046;-79
2022/06/07 01:23:44;;;;;;;9.43;4.97;;;12.30;99.90;;;;;;4982587;28;20042;-79
2022/06/07 01:26:11;;;;;;;14.20;3.53;;;12.30;99.90;;;;;;4982563;28;20412;-79
2022/06/07 01:28:36;;;;;;;3.70;3.40;;;12.30;99.90;;;;;;4965510;28;20042;-79
2022/06/07 01:31:02;;;;;;;8.50;4.22;;;12.30;99.90;;;;;;4982349;28;20043;-80
2022/06/07 01:33:28;;;;;;;6.57;4.80;;;12.30;99.90;;;;;;4982701;28;20045;-79
2022/06/07 01:36:06;;;;;;;3.83;2.70;;;12.30;99.90;;;;;;4982406;28;20140;-79
2022/06/07 01:38:33;;;;;;;7.82;3.88;;;12.30;99.90;;;;;;4982589;28;20035;-79
2022/06/07 01:43:43;;;;;;;7.93;4.97;;;12.40;99.90;;;;;;4982703;28;20038;-79
2022/06/07 01:46:09;;;;;;;3.60;3.15;;;12.30;99.90;;;;;;4980562;28;20046;-79
2022/06/07 01:48:34;;;;;;;3.90;3.47;;;12.30;99.90;;;;;;4981954;28;20042;-78
2022/06/07 01:51:06;;;;;;;5.47;3.50;;;12.30;99.90;;;;;;4983361;28;20042;-78
2022/06/07 01:53:32;;;;;;;8.75;4.15;;;12.20;99.90;;;;;;4982306;28;20070;-79
2022/06/07 01:56:17;;;;;;;4.30;3.40;;;12.20;99.90;;;;;;4982818;28;20126;-78
2022/06/07 01:58:44;;;;;;;7.13;3.22;;;12.20;99.90;;;;;;4997902;28;20668;-79
2022/06/07 02:01:11;;;;;;;6.20;3.88;;;12.10;99.90;;;;;;4981914;28;20065;-78
2022/06/07 02:03:37;;;;;;;5.38;2.67;;;12.10;99.90;;;;;;4980201;28;20148;-78
2022/06/07 02:06:06;;;;;;;2.90;2.35;;;12.10;99.90;;;;;;4980663;28;20078;-79
2022/06/07 02:08:32;;;;;;;9.05;3.85;;;12.00;99.90;;;;;;4981852;28;20054;-80
2022/06/07 02:11:05;;;;;;;9.38;2.95;;;12.00;99.90;;;;;;4981663;28;20487;-78
2022/06/07 02:13:31;;;;;;;4.90;3.22;;;12.00;99.90;;;;;;4982439;28;20834;-78
2022/06/07 02:15:57;;;;;;;7.10;2.92;;;12.00;99.90;;;;;;4981401;28;20046;-78
2022/06/07 02:18:22;;;;;;;5.15;3.17;;;11.90;99.90;;;;;;4981042;28;20631;-79
2022/06/07 02:20:48;;;;;;;13.80;4.55;;;11.90;99.90;;;;;;4981947;28;20045;-78
2022/06/07 02:23:14;;;;;;;4.80;2.72;;;11.80;99.90;;;;;;4982280;28;20117;-78
2022/06/07 02:25:44;;;;;;;5.18;2.80;;;11.80;99.90;;;;;;4982495;28;20468;-79
2022/06/07 02:28:12;;;;;;;4.47;3.10;;;11.80;99.90;;;;;;4981620;28;20093;-79
2022/06/07 02:30:40;;;;;;;5.32;3.28;;;11.70;99.90;;;;;;4982368;28;20077;-79
2022/06/07 02:33:07;;;;;;;6.70;3.08;;;11.70;99.90;;;;;;4980721;28;20086;-79
2022/06/07 02:35:33;;;;;;;8.27;3.58;;;11.60;99.90;;;;;;4981874;28;20038;-79
2022/06/07 02:37:59;;;;;;;6.00;2.72;;;11.60;99.90;;;;;;4982541;28;20845;-79
2022/06/07 02:40:25;;;;;;;2.50;2.33;;;11.60;99.90;;;;;;4981727;28;20082;-79
2022/06/07 02:42:50;;;;;;;2.53;2.33;;;11.60;99.90;;;;;;4982272;28;20072;-79
2022/06/07 02:45:16;;;;;;;7.32;3.45;;;11.60;99.90;;;;;;4981936;28;20105;-79
2022/06/07 02:47:43;;;;;;;4.57;3.30;;;11.60;99.90;;;;;;4980511;28;20346;-79
2022/06/07 02:50:09;;;;;;;5.53;3.13;;;11.60;99.90;;;;;;4963696;28;20042;-79
2022/06/07 02:52:35;;;;;;;5.22;3.63;;;11.60;99.90;;;;;;4981841;28;20057;-79
2022/06/07 02:55:01;;;;;;;4.53;4.07;;;11.60;99.90;;;;;;4981857;28;20710;-79
2022/06/07 02:57:27;;;;;;;4.75;3.60;;;11.60;99.90;;;;;;4981960;28;20481;-79
2022/06/07 02:59:53;;;;;;;4.65;4.00;;;11.60;99.90;;;;;;4981852;28;20090;-79
2022/06/07 03:02:18;;;;;;;3.45;3.15;;;11.60;99.90;;;;;;4981398;28;20046;-78
2022/06/07 03:04:44;;;;;;;14.95;3.50;;;11.60;99.90;;;;;;4981545;28;20042;-79
2022/06/07 03:07:10;;;;;;;4.63;3.58;;;11.60;99.90;;;;;;4984848;28;20057;-78
2022/06/07 03:09:35;;;;;;;9.77;2.30;;;11.60;99.90;;;;;;4985455;28;20157;-79
2022/06/07 03:12:02;;;;;;;4.45;2.80;;;11.50;99.90;;;;;;4985097;28;20045;-79
2022/06/07 03:14:28;;;;;;;2.65;2.28;;;11.50;99.90;;;;;;4985945;28;20046;-78
2022/06/07 03:16:53;;;;;;;4.13;3.55;;;11.50;99.90;;;;;;4985371;28;20038;-79
2022/06/07 03:19:19;;;;;;;2.80;2.22;;;11.50;99.90;;;;;;4999003;28;20043;-79
2022/06/07 03:21:45;;;;;;;3.88;2.80;;;11.40;99.90;;;;;;4985325;28;20381;-79
2022/06/07 03:24:10;;;;;;;5.45;3.35;;;11.50;99.90;;;;;;4983572;28;20042;-79
2022/06/07 03:26:36;;;;;;;9.00;3.03;;;11.40;99.90;;;;;;4983597;28;20038;-79
2022/06/07 03:29:03;;;;;;;5.55;2.38;;;11.40;99.90;;;;;;4965496;28;20062;-79
2022/06/07 03:31:28;;;;;;;6.20;2.85;;;11.40;99.90;;;;;;4966020;28;20062;-79
2022/06/07 03:33:54;;;;;;;4.65;3.15;;;11.40;99.90;;;;;;4965871;28;20047;-79
2022/06/07 03:36:28;;;;;;;4.05;2.97;;;11.40;99.90;;;;;;4983488;28;20109;-79
2022/06/07 03:38:57;;;;;;;6.68;2.38;;;11.50;99.90;;;;;;4984693;28;20038;-79
2022/06/07 03:41:26;;;;;;;10.75;2.83;;;11.50;99.90;;;;;;4983717;28;20041;-78
2022/06/07 03:43:52;;;;;;;7.05;3.00;;;11.50;99.90;;;;;;4984952;28;20057;-78
2022/06/07 03:46:22;;;;;;;2.65;2.45;;;11.50;99.90;;;;;;4999376;28;20042;-79
2022/06/07 03:48:48;;;;;;;2.33;2.08;;;11.60;99.90;;;;;;4982161;28;20046;-79
2022/06/07 03:51:16;;;;;;;8.35;3.88;;;11.60;99.90;;;;;;4983304;28;20069;-79
2022/06/07 03:53:43;;;;;;;8.63;3.58;;;11.60;99.90;;;;;;4984758;28;20041;-79
2022/06/07 03:56:09;;;;;;;3.17;2.80;;;11.50;99.90;;;;;;4983991;28;20073;-80
2022/06/07 03:58:38;;;;;;;7.55;3.85;;;11.60;99.90;;;;;;4984505;28;20042;-80
2022/06/07 04:01:05;;;;;;;3.92;3.00;;;11.60;99.90;;;;;;4984113;28;20046;-79
2022/06/07 04:03:31;;;;;;;11.98;3.55;;;11.50;99.90;;;;;;4983142;28;20038;-80
2022/06/07 04:05:57;;;;;;;7.10;3.97;;;11.50;99.90;;;;;;4983411;28;20101;-78
2022/06/07 04:08:25;;;;;;;10.05;4.68;;;11.50;99.90;;;;;;4978475;28;20061;-78
2022/06/07 04:10:56;;;;;;;4.47;3.20;;;11.50;99.90;;;;;;4983297;28;20054;-79
2022/06/07 04:13:24;;;;;;;3.05;2.80;;;11.50;99.90;;;;;;4981789;28;20053;-81
2022/06/07 04:15:50;;;;;;;4.18;2.80;;;11.50;99.90;;;;;;4982744;28;20042;-80
2022/06/07 04:18:16;;;;;;;5.57;3.75;;;11.50;99.90;;;;;;4981680;28;20042;-81
2022/06/07 04:20:42;;;;;;;3.72;2.67;;;11.50;99.90;;;;;;4984117;28;20046;-81
2022/06/07 04:23:21;;;;;;;6.35;4.28;;;11.50;99.90;;;;;;4984001;28;20065;-80
2022/06/07 04:25:47;;;;;;;11.77;4.68;;;11.50;99.90;;;;;;4980551;28;20550;-80
2022/06/07 04:28:14;;;;;;;3.20;2.90;;;11.50;99.90;;;;;;4972135;28;20038;-80
2022/06/07 04:30:46;;;;;;;6.00;3.65;;;11.50;99.90;;;;;;4964248;28;20043;-81
2022/06/07 04:33:15;;;;;;;9.48;3.88;;;11.50;99.90;;;;;;4963421;28;20137;-80
2022/06/07 04:35:42;;;;;;;14.00;4.53;;;11.50;99.90;;;;;;4963433;28;20043;-80
2022/06/07 04:38:08;;;;;;;7.15;4.25;;;11.50;99.90;;;;;;4961172;28;20490;-81
2022/06/07 04:40:34;;;;;;;6.97;3.88;;;11.50;99.90;;;;;;4962579;28;20521;-81
2022/06/07 04:43:00;;;;;;;5.05;3.63;;;11.60;99.90;;;;;;4963229;28;20134;-80
2022/06/07 04:45:26;;;;;;;6.45;3.10;;;11.50;99.90;;;;;;4978476;28;20452;-80
2022/06/07 04:47:52;;;;;;;4.80;3.28;;;11.60;99.90;;;;;;4976384;28;20042;-80
2022/06/07 04:50:18;;;;;;;10.40;3.75;;;11.60;99.90;;;;;;4980836;28;20042;-80
2022/06/07 04:52:45;;;;;;;4.68;2.92;;;11.60;99.90;;;;;;4982189;28;20076;-80
2022/06/07 04:55:12;;;;;;;7.07;3.17;;;11.60;99.90;;;;;;4981253;28;20065;-80
2022/06/07 04:57:38;;;;;;;5.55;2.63;;;11.60;99.90;;;;;;4982318;28;20054;-79
2022/06/07 05:00:07;;;;;;;3.53;2.05;;;11.60;99.90;;;;;;4981938;28;20049;-79
2022/06/07 05:02:35;;;;;;;1.58;1.13;;;11.60;99.90;;;;;;4981201;28;20913;-78
2022/06/07 05:05:02;;;;;;;1.27;1.00;;;11.60;99.90;;;;;;4981634;28;20032;-77
2022/06/07 05:07:28;;;;;;;4.95;1.80;;;11.60;99.90;;;;;;4982106;28;20497;-78
2022/06/07 05:09:53;;;;;;;1.98;1.30;;;11.50;99.90;;;;;;4972573;28;20121;-77
2022/06/07 05:12:19;;;;;;;5.70;2.05;;;11.50;99.90;;;;;;4981181;28;20050;-78
2022/06/07 05:14:44;;;;;;;3.95;1.20;;;11.50;99.90;;;;;;4975218;28;20496;-78
2022/06/07 05:17:10;;;;;;;1.98;0.95;;;11.50;99.90;;;;;;4977056;28;20124;-78
2022/06/07 05:19:37;;;;;;;3.70;1.50;;;11.50;99.90;;;;;;4980232;28;20103;-78
2022/06/07 05:22:03;;;;;;;3.88;1.23;;;11.50;99.90;;;;;;4973923;28;20113;-78
2022/06/07 05:24:28;;;;;;;6.95;1.15;;;11.50;99.90;;;;;;4962899;28;20512;-78
2022/06/07 05:26:58;;;;;;;6.72;1.55;;;11.50;99.90;;;;;;4962271;28;20042;-77
2022/06/07 05:29:39;;;;;;;6.38;1.75;;;11.40;99.90;;;;;;4959971;28;20099;-77
2022/06/07 05:32:05;;;;;;;3.63;1.90;;;11.40;99.90;;;;;;4977255;28;20053;-78
2022/06/07 05:34:31;;;;;;;2.38;0.98;;;11.40;99.90;;;;;;4980410;28;20050;-79
2022/06/07 05:36:56;;;;;;;5.65;1.50;;;11.40;99.90;;;;;;4981835;28;20076;-76
2022/06/07 05:39:24;;;;;;;6.32;2.78;;;11.50;99.90;;;;;;4980634;28;20089;-77
2022/06/07 05:41:51;;;;;;;6.63;1.73;;;11.50;99.90;;;;;;4981049;28;20285;-76
2022/06/07 05:44:18;;;;;;;5.50;1.80;;;11.50;99.90;;;;;;4980624;28;20050;-77
2022/06/07 05:46:44;;;;;;;4.13;1.25;;;11.50;99.90;;;;;;4980911;28;20116;-77
2022/06/07 05:49:11;;;;;;;1.33;1.08;;;11.50;99.90;;;;;;4979804;28;20042;-77
2022/06/07 05:51:38;;;;;;;2.72;1.20;;;11.50;99.90;;;;;;4980157;28;20480;-81
2022/06/07 05:54:38;;;;;;;7.88;1.58;;;11.50;99.90;;;;;;4978945;28;20468;-80
2022/06/07 05:57:04;;;;;;;5.68;1.02;;;11.50;99.90;;;;;;4976315;28;20077;-80
2022/06/07 05:59:30;;;;;;;1.98;0.98;;;11.60;99.90;;;;;;4981447;28;20061;-80
2022/06/07 06:01:56;;;;;;;2.70;1.45;;;11.60;99.90;;;;;;4980519;28;20038;-78
2022/06/07 06:04:21;;;;;;;2.90;1.80;;;11.60;99.90;;;;;;4975108;28;20106;-78
2022/06/07 06:06:47;;;;;;;2.92;1.73;;;11.70;99.90;;;;;;4973797;28;20144;-79
2022/06/07 06:11:57;;;;;;;3.40;2.70;;;11.80;99.90;;;;;;4980414;28;20100;-81
2022/06/07 06:14:23;;;;;;;4.18;2.13;;;11.80;99.90;;;;;;4963153;28;20046;-81
2022/06/07 06:16:49;;;;;;;8.30;3.03;;;11.90;99.90;;;;;;4980390;28;20121;-81
2022/06/07 06:19:15;;;;;;;4.35;2.30;;;12.00;99.90;;;;;;4994559;28;20498;-81
2022/06/07 06:21:43;;;;;;;6.25;2.85;;;12.00;99.90;;;;;;4980173;28;20050;-81
2022/06/07 06:24:09;;;;;;;2.45;2.15;;;12.00;99.90;;;;;;4979410;28;20507;-80
2022/06/07 06:26:37;;;;;;;7.40;2.60;;;12.10;99.90;;;;;;4980058;28;20038;-81
2022/06/07 06:29:04;;;;;;;2.38;1.90;;;12.10;99.90;;;;;;4980711;28;20053;-81
2022/06/07 06:31:29;;;;;;;6.15;1.75;;;12.20;99.90;;;;;;4979660;28;20049;-80
2022/06/07 06:33:55;;;;;;;10.52;2.13;;;12.10;99.90;;;;;;4979614;28;20035;-80
2022/06/07 06:36:25;;;;;;;3.85;1.67;;;12.20;99.90;;;;;;4979913;28;20069;-81
2022/06/07 06:38:50;;;;;;;6.50;1.48;;;12.20;99.90;;;;;;4981515;28;20085;-80
2022/06/07 06:41:24;;;;;;;10.07;2.67;;;12.20;99.90;;;;;;4984986;28;20564;-81
2022/06/07 06:43:51;;;;;;;4.85;1.75;;;12.30;99.90;;;;;;4980182;28;20046;-79
2022/06/07 06:46:24;;;;;;;9.80;2.95;;;12.30;99.90;;;;;;4978764;28;20045;-80
2022/06/07 06:48:49;;;;;;;4.78;2.53;;;12.30;99.90;;;;;;4989953;28;20234;-79
2022/06/07 06:51:18;;;;;;;5.55;1.70;;;12.30;99.90;;;;;;4982947;28;20123;-78
2022/06/07 06:53:44;;;;;;;9.77;3.13;;;12.30;99.90;;;;;;4982692;28;20042;-78
2022/06/07 06:56:12;;;;;;;4.47;1.90;;;12.40;99.90;;;;;;4983660;28;20035;-78
2022/06/07 06:58:39;;;;;;;1.95;1.52;;;12.40;99.90;;;;;;4999865;28;20042;-78
2022/06/07 07:01:16;;;;;;;4.00;1.95;;;12.40;99.90;;;;;;4983641;28;20057;-77
2022/06/07 07:03:42;;;;;;;2.05;1.23;;;12.40;99.90;;;;;;4983253;28;20038;-78
2022/06/07 07:06:10;;;;;;;4.30;1.60;;;12.40;99.90;;;;;;4982047;28;20050;-78
2022/06/07 07:08:38;;;;;;;18.42;2.65;;;12.40;99.90;;;;;;4966222;28;20054;-78
2022/06/07 07:11:18;;;;;;;6.25;1.25;;;12.40;99.90;;;;;;4966085;28;20085;-78
2022/06/07 07:13:45;;;;;;;1.30;0.98;;;12.40;99.90;;;;;;4984331;28;20120;-79
2022/06/07 07:16:14;;;;;;;4.00;1.20;;;12.30;99.90;;;;;;4983401;28;20700;-78
2022/06/07 07:18:40;;;;;;;4.32;1.85;;;12.30;99.90;;;;;;4981620;28;20050;-78
2022/06/07 07:21:09;;;;;;;5.05;0.68;;;12.30;99.90;;;;;;4983304;28;20046;-78
2022/06/07 07:23:35;;;;;;;9.95;2.00;;;12.30;99.90;;;;;;4982543;28;20532;-78
2022/06/07 07:26:13;;;;;;;3.20;1.95;;;12.30;99.90;;;;;;4983241;28;20126;-78
2022/06/07 07:28:40;;;;;;;11.85;1.73;;;12.30;99.90;;;;;;4998197;28;20412;-78
2022/06/07 07:31:08;;;;;;;2.25;1.60;;;12.30;99.90;;;;;;4983494;28;20092;-78
2022/06/07 07:33:34;;;;;;;2.63;1.30;;;12.30;99.90;;;;;;4982284;28;20053;-78
2022/06/07 07:36:01;;;;;;;4.07;1.55;;;12.40;99.90;;;;;;4983629;28;20074;-78
2022/06/07 07:38:27;;;;;;;7.05;1.05;;;12.40;99.90;;;;;;4982599;28;20519;-78
2022/06/07 07:40:52;;;;;;;10.30;1.63;;;12.40;99.90;;;;;;4982793;28;20085;-78
2022/06/07 07:43:18;;;;;;;6.10;1.63;;;12.40;99.90;;;;;;4983045;28;20038;-78
2022/06/07 07:45:44;;;;;;;3.35;1.45;;;12.50;99.90;;;;;;4983223;28;20550;-78
2022/06/07 07:48:11;;;;;;;3.17;1.40;;;12.50;99.90;;;;;;4980498;28;20038;-77
2022/06/07 07:50:38;;;;;;;3.90;1.10;;;12.60;99.90;;;;;;4981403;28;20035;-78
2022/06/07 07:53:04;;;;;;;4.05;1.08;;;12.60;99.90;;;;;;4982542;28;20034;-78
2022/06/07 07:55:29;;;;;;;3.35;1.90;;;12.60;99.90;;;;;;4982285;28;20042;-77
2022/06/07 07:57:55;;;;;;;5.47;1.17;;;12.70;99.90;;;;;;4981990;28;20681;-77
2022/06/07 08:00:21;;;;;;;2.80;1.17;;;12.80;99.90;;;;;;4982234;28;20046;-78
2022/06/07 08:02:47;;;;;;;2.38;0.88;;;12.90;99.90;;;;;;4982253;28;20046;-78
2022/06/07 08:05:12;;;;;;;0.60;0.60;;;12.90;99.90;;;;;;4981648;28;20100;-78
2022/06/07 08:07:38;;;;;;;1.35;1.20;;;13.00;99.90;;;;;;4983307;28;20065;-77
2022/06/07 08:10:05;;;;;;;2.10;1.02;;;13.00;99.90;;;;;;4983423;28;20049;-78
2022/06/07 08:12:31;;;;;;;7.15;1.45;;;13.00;99.90;;;;;;4983061;28;20042;-81
2022/06/07 08:15:00;;;;;;;3.00;1.70;;;13.10;99.90;;;;;;4982344;28;20626;-79
2022/06/07 08:17:27;;;;;;;3.60;1.63;;;13.10;99.90;;;;;;4997785;28;20080;-79
2022/06/07 08:19:53;;;;;;;3.78;1.42;;;13.20;99.90;;;;;;4983284;28;20499;-79
2022/06/07 08:22:20;;;;;;;7.72;1.58;;;13.20;99.90;;;;;;4983294;28;20129;-79
2022/06/07 08:24:46;;;;;;;5.93;1.45;;;13.20;99.90;;;;;;4982429;28;20440;-76
2022/06/07 08:27:12;;;;;;;1.48;0.85;;;13.20;99.90;;;;;;4983159;28;20565;-76
2022/06/07 08:29:38;;;;;;;5.95;1.02;;;13.20;99.90;;;;;;4981487;28;20121;-77
2022/06/07 08:32:04;;;;;;;1.00;0.88;;;13.20;99.90;;;;;;4982090;28;20053;-79
2022/06/07 08:37:33;;;;;;;3.05;1.20;;;13.10;99.90;;;;;;4980870;28;20052;-78
2022/06/07 08:39:59;;;;;;;2.95;1.10;;;13.00;99.90;;;;;;4981724;28;20080;-78
2022/06/07 08:42:34;;;;;;;4.35;1.40;;;13.10;99.90;;;;;;4982876;28;20470;-79
2022/06/07 08:45:05;;;;;;;2.15;1.40;;;13.00;99.90;;;;;;4982143;28;20046;-79
2022/06/07 08:47:38;;;;;;;1.83;0.60;;;13.00;99.90;;;;;;4997230;28;20104;-80
2022/06/07 08:50:26;;;;;;;3.80;2.03;;;13.00;99.90;;;;;;4982414;28;20050;-77
2022/06/07 08:52:57;;;;;;;4.40;1.95;;;13.00;99.90;;;;;;4981110;28;20039;-76
2022/06/07 08:55:41;;;;;;;9.00;2.60;;;13.00;99.90;;;;;;4982731;28;20070;-76
2022/06/07 08:58:26;;;;;;;8.25;2.65;;;13.00;99.90;;;;;;4997204;28;20530;-78
2022/06/07 09:00:57;;;;;;;4.50;2.20;;;13.00;99.90;;;;;;4966248;28;20054;-78
2022/06/07 09:03:36;;;;;;;1.75;0.90;;;13.10;99.90;;;;;;4970701;28;20152;-79
2022/06/07 09:06:04;;;;;;;9.07;1.80;;;13.10;99.90;;;;;;4978353;28;20532;-78
2022/06/07 09:08:39;;;;;;;10.65;1.55;;;13.30;99.90;;;;;;4969120;28;20050;-78
2022/06/07 09:13:53;;;;;;;3.90;2.03;;;13.40;99.90;;;;;;4981271;28;20061;-77
2022/06/07 09:16:19;;;;;;;6.55;2.35;;;13.40;99.90;;;;;;4981098;28;20056;-78
2022/06/07 09:18:45;;;;;;;8.50;1.27;;;13.50;99.90;;;;;;4981676;28;20089;-78
2022/06/07 09:21:24;;;;;;;3.22;1.95;;;13.60;99.90;;;;;;4982315;28;20042;-78
2022/06/07 09:23:51;;;;;;;1.88;1.05;;;13.60;99.90;;;;;;4978440;28;20122;-77
2022/06/07 09:26:25;;;;;;;5.38;1.27;;;13.60;99.90;;;;;;4982045;28;20681;-77
2022/06/07 09:29:19;;;;;;;2.63;1.17;;;13.60;99.90;;;;;;4975767;28;20047;-78
2022/06/07 09:31:47;;;;;;;3.40;0.95;;;13.60;99.90;;;;;;4979765;28;20055;-78
2022/06/07 09:34:19;;;;;;;1.85;0.80;;;13.60;99.90;;;;;;4973119;28;20039;-77
2022/06/07 09:36:49;;;;;;;1.38;0.70;;;13.60;99.90;;;;;;4968887;28;20050;-79
2022/06/07 09:39:29;;;;;;;4.10;1.55;;;13.50;99.90;;;;;;4973300;28;20060;-81
2022/06/07 09:42:04;;;;;;;2.50;1.13;;;13.50;99.90;;;;;;4973099;28;20054;-86
2022/06/07 09:44:38;;;;;;;10.38;1.60;;;13.50;99.90;;;;;;4971124;28;20043;-82
2022/06/07 09:47:19;;;;;;;3.63;1.17;;;13.50;99.90;;;;;;4962098;28;20433;-80
2022/06/07 09:49:55;;;;;;;1.48;1.08;;;13.50;99.90;;;;;;4968087;28;20513;-78
2022/06/07 09:52:24;;;;;;;3.45;1.17;;;13.50;99.90;;;;;;4967411;28;20050;-80
2022/06/07 09:55:12;;;;;;;0.65;0.55;;;13.50;99.90;;;;;;4971542;28;20734;-80
2022/06/07 09:57:42;;;;;;;3.83;1.75;;;13.40;99.90;;;;;;4968334;28;20042;-80
2022/06/07 10:00:23;;;;;;;1.10;1.00;;;13.50;99.90;;;;;;4969270;28;20047;-78
2022/06/07 10:03:16;;;;;;;3.13;1.47;;;13.50;99.90;;;;;;4968596;28;20437;-80
2022/06/07 10:06:04;;;;;;;3.95;1.55;;;13.50;99.90;;;;;;4978425;28;20327;-79
2022/06/07 10:08:42;;;;;;;4.63;1.35;;;13.50;99.90;;;;;;4980394;28;20093;-79
2022/06/07 10:11:45;;;;;;;1.38;1.08;;;13.50;99.90;;;;;;4972682;28;20081;-79
2022/06/07 10:14:49;;;;;;;4.65;0.73;;;13.60;99.90;;;;;;4992565;28;20126;-81
2022/06/07 10:17:43;;;;;;;0.80;0.65;;;13.60;99.90;;;;;;4968513;28;20034;-79
2022/06/07 10:20:53;;;;;;;0.75;0.75;;;13.70;99.90;;;;;;4970601;28;20042;-80
2022/06/07 10:23:49;;;;;;;1.75;0.80;;;13.70;99.90;;;;;;4970624;28;20076;-80
2022/06/07 10:26:39;;;;;;;1.63;0.90;;;13.80;99.90;;;;;;4968776;28;20039;-80
2022/06/07 10:29:31;;;;;;;2.83;0.98;;;13.90;99.90;;;;;;4971258;28;20034;-80
2022/06/07 10:32:27;;;;;;;2.25;0.60;;;14.10;99.90;;;;;;4977168;28;20046;-79
2022/06/07 10:35:11;;;;;;;1.15;1.02;;;14.10;99.90;;;;;;4969262;28;20500;-78
2022/06/07 10:38:12;;;;;;;0.52;0.50;;;14.20;99.90;;;;;;4977501;28;20085;-81
2022/06/07 10:40:56;;;;;;;1.75;1.27;;;14.40;99.90;;;;;;4971716;28;20141;-81
2022/06/07 10:43:26;;;;;;;2.28;0.68;;;14.40;99.90;;;;;;4960725;28;20050;-79
2022/06/07 10:45:59;;;;;;;2.15;0.90;;;14.50;99.90;;;;;;4978964;28;20093;-81
2022/06/07 10:48:37;;;;;;;3.85;1.02;;;14.50;99.90;;;;;;4962762;28;20073;-81
2022/06/07 10:54:23;;;;;;;4.05;0.68;;;14.60;99.90;;;;;;4972179;28;20400;-81
2022/06/07 10:57:12;;;;;;;1.08;0.80;;;14.60;99.90;;;;;;4968356;28;20049;-79
2022/06/07 10:59:40;;;;;;;1.23;0.90;;;14.60;99.90;;;;;;4972800;28;20417;-81
2022/06/07 11:02:39;;;;;;;4.57;0.73;;;14.70;99.90;;;;;;4967413;28;20050;-81
2022/06/07 11:11:07;;;;;;;1.17;0.55;;;14.90;99.90;;;;;;4976396;28;20043;-80
2022/06/07 11:13:40;;;;;;;1.38;0.60;;;14.90;99.90;;;;;;4967503;28;20082;-81
2022/06/07 11:16:09;;;;;;;0.40;0.40;;;15.00;99.90;;;;;;4960830;28;20592;-79
2022/06/07 11:18:35;;;;;;;1.17;0.80;;;15.00;99.90;;;;;;4959771;28;20448;-78
2022/06/07 11:21:00;;;;;;;1.65;1.10;;;15.10;99.90;;;;;;4960363;28;20043;-80
2022/06/07 11:23:36;;;;;;;1.08;0.70;;;15.00;99.90;;;;;;4960395;28;20039;-79
2022/06/07 11:26:06;;;;;;;2.08;1.40;;;15.00;99.90;;;;;;4973321;28;20337;-79
2022/06/07 11:28:36;;;;;;;3.03;1.13;;;15.00;99.90;;;;;;4976331;28;20054;-80
2022/06/07 11:31:21;;;;;;;7.57;0.68;;;15.00;99.90;;;;;;4975727;28;20047;-79
2022/06/07 11:33:53;;;;;;;0.52;0.52;;;15.10;99.90;;;;;;4974041;28;20066;-79
2022/06/07 11:36:24;;;;;;;1.35;0.82;;;15.10;99.90;;;;;;4976325;28;20046;-80
2022/06/07 11:41:46;;;;;;;1.30;0.65;;;15.10;99.90;;;;;;4980333;28;20065;-79
2022/06/07 11:44:26;;;;;;;2.03;0.98;;;15.10;99.90;;;;;;4963360;28;20042;-79
2022/06/07 11:46:51;;;;;;;0.60;0.60;;;15.10;99.90;;;;;;4969148;28;20259;-77
2022/06/07 11:49:29;;;;;;;0.32;0.28;;;15.10;99.90;;;;;;4981180;28;20424;-78
2022/06/07 11:52:01;;;;;;;1.30;0.70;;;15.10;99.90;;;;;;4981816;28;20046;-82
2022/06/07 11:54:28;;;;;;;0.70;0.65;;;15.10;99.90;;;;;;4998359;28;20404;-79
2022/06/07 11:56:59;;;;;;;0.40;0.32;;;15.10;99.90;;;;;;4975311;28;20057;-80
2022/06/07 11:59:25;;;;;;;1.17;0.63;;;15.20;99.90;;;;;;4977653;28;20268;-79
2022/06/07 12:01:54;;;;;;;3.00;0.73;;;15.20;99.90;;;;;;4974632;28;20460;-78
2022/06/07 12:04:43;;;;;;;0.60;0.60;;;15.20;99.90;;;;;;4955826;28;20043;-78
2022/06/07 12:07:33;;;;;;;1.20;0.80;;;15.30;99.90;;;;;;4981004;28;20125;-80
2022/06/07 12:10:20;;;;;;;0.82;0.60;;;15.30;99.90;;;;;;4981995;28;20132;-78
2022/06/07 12:12:53;;;;;;;0.32;0.32;;;15.40;99.90;;;;;;4977031;28;20528;-77
2022/06/07 12:15:37;;;;;;;0.32;0.32;;;15.40;99.90;;;;;;4970835;28;20093;-79
2022/06/07 12:18:24;;;;;;;0.60;0.60;;;15.40;99.90;;;;;;4973280;28;20088;-78
2022/06/07 12:21:06;;;;;;;2.55;1.10;;;15.30;99.90;;;;;;4979267;28;20050;-77
2022/06/07 12:23:34;;;;;;;;;;;15.40;99.90;;;;;;4983989;28;20050;-78
2022/06/07 12:26:15;;;;;;;0.88;0.88;;;15.30;99.90;;;;;;4975450;28;20532;-77
2022/06/07 12:28:50;;;;;;;0.88;0.88;;;15.30;99.90;;;;;;4968477;28;21008;-78
2022/06/07 12:31:31;;;;;;;2.90;1.10;;;15.30;99.90;;;;;;4981644;28;20046;-78
2022/06/07 12:34:01;;;;;;;2.05;0.95;;;15.30;99.90;;;;;;4982483;28;20042;-77
2022/06/07 12:36:33;;;;;;;7.88;1.45;;;15.20;99.90;;;;;;4995393;28;20140;-78
2022/06/07 12:39:03;;;;;;;1.50;0.88;;;15.20;99.90;;;;;;4995390;28;20046;-77
2022/06/07 12:41:32;;;;;;;4.43;1.10;;;15.20;99.90;;;;;;4977409;28;20046;-77
2022/06/07 12:44:02;;;;;;;1.00;0.80;;;15.20;99.90;;;;;;4979609;28;20048;-84
2022/06/07 12:46:41;;;;;;;1.50;1.38;;;15.20;99.90;;;;;;4976928;28;20118;-78
2022/06/07 12:49:27;;;;;;;2.08;1.48;;;15.20;99.90;;;;;;4982202;28;20532;-78
2022/06/07 12:51:59;;;;;;;1.77;0.95;;;15.20;99.90;;;;;;4980991;28;20043;-79
2022/06/07 12:54:27;;;;;;;2.38;0.90;;;15.20;99.90;;;;;;4973295;28;20046;-79
2022/06/07 12:56:56;;;;;;;3.80;1.58;;;15.20;99.90;;;;;;4980181;28;20137;-79
2022/06/07 12:59:35;;;;;;;3.60;1.60;;;15.10;99.90;;;;;;4955423;28;20838;-80
2022/06/07 13:02:13;;;;;;;0.55;0.50;;;15.20;99.90;;;;;;4973664;28;20073;-80
2022/06/07 13:04:51;;;;;;;3.72;1.38;;;15.20;99.90;;;;;;4982608;28;20034;-79
2022/06/07 13:07:29;;;;;;;1.45;1.08;;;15.30;99.90;;;;;;4979274;28;20366;-78
2022/06/07 13:10:03;;;;;;;9.55;1.70;;;15.40;99.90;;;;;;4979709;28;20065;-79
2022/06/07 13:12:34;;;;;;;0.55;0.55;;;15.50;99.90;;;;;;4982341;28;20046;-82
2022/06/07 13:15:01;;;;;;;1.85;0.85;;;15.60;99.90;;;;;;4982179;28;20093;-82
2022/06/07 13:17:36;;;;;;;5.10;0.82;;;15.70;99.90;;;;;;4981219;28;20049;-83
2022/06/07 13:20:05;;;;;;;2.85;0.93;;;15.80;99.90;;;;;;4977276;28;20089;-77
2022/06/07 13:22:40;;;;;;;9.18;1.45;;;15.80;99.90;;;;;;4982537;28;20038;-79
2022/06/07 13:25:17;;;;;;;1.85;1.10;;;15.80;99.90;;;;;;4982077;28;20038;-78
2022/06/07 13:28:01;;;;;;;13.52;1.30;;;15.80;99.90;;;;;;4981407;28;20050;-79
2022/06/07 13:30:33;;;;;;;0.55;0.55;;;15.80;99.90;;;;;;4981585;28;20120;-79